Hlavní strana
METAR-TAF:

METAR-TAF

Letiště :

Rørvik, Norsko

zeměpisná šířka: 64-50N, zeměpisná délka: 011-09E, výška: 4 m

Aktuální stav počasí

Zpráva byla vytvořena před 33 minutami, v 13:20 UTC
Severoseverozápadní vítr 11 kt
Teplota 3°C
Vlhkost vzduchu 56%
Tlak 1005 hPa
Viditelnost 10 km a více
Skoro jasno ve výšce 3000 ft
Oblačno až skoro zataženo ve výšce 4100 ft

METAR: ENRM 181320Z 34011KT 9999 FEW030 BKN041 03/M05 Q1005

Čas: 14:53 (13:53 UTC)

Předpověď počasí

Zpráva byla vytvořena před 2 hodinami a 53 minutami, v 11:00 UTC
Předpověď platná od 18 v 12 UTC do 18 v 21 UTC
Severní vítr 12 kt
Viditelnost 10 km a více
Skoro jasno ve výšce 2000 ft
Oblačno až skoro zataženo ve výšce 5000 ft
Pravděpodobnost 40% :
Dočasný
od 18 v 12 UTC do 18 v 18 UTC
Severní vítr 15 kt s nárazy do 25 kt

TAF: ENRM 181100Z 1812/1821 36012KT 9999 FEW020 BKN050 PROB40 TEMPO 1812/1818 36015G25KT

Stav a předpovědi počasí z více než 4 000 letišť (zprávy METAR a TAF).

Červené a žluté tečky na mapě představují dostupné meteorologické stanice.

Když kurzor umístíte na tečku, zobrazí se název stanice.

Pak kliknutím zobrazíte stav a předpověď počasí.

Chcete-li změnit mapu, kliknutím na zelené tlačítko se znaménkem +mapu přiblížíte, kliknutím na zelené tlačítko se znaménkem – mapu oddálíte a kliknutím na zelené šipky přejdete na sousední mapy.


METAR-TAF: